createdAt,value
2022-10-15T00:00:26.119Z,44.46
2022-10-15T00:00:57.632Z,44.18
2022-10-15T00:01:29.158Z,44.44
2022-10-15T00:02:00.579Z,44.15
2022-10-15T00:02:31.937Z,44.30
2022-10-15T00:03:03.376Z,44.49
2022-10-15T00:03:34.723Z,44.27
2022-10-15T00:04:06.124Z,44.23
2022-10-15T00:04:37.546Z,44.55
2022-10-15T00:05:08.915Z,44.23
2022-10-15T00:05:40.290Z,44.18
2022-10-15T00:06:11.698Z,44.30
2022-10-15T00:06:43.080Z,44.41
2022-10-15T00:07:14.549Z,44.51
2022-10-15T00:07:45.936Z,44.41
2022-10-15T00:08:17.487Z,44.61
2022-10-15T00:08:48.937Z,44.33
2022-10-15T00:09:20.339Z,44.60
2022-10-15T00:09:51.793Z,44.31
2022-10-15T00:10:23.183Z,44.55
2022-10-15T00:10:54.540Z,44.27
2022-10-15T00:11:26.111Z,44.19
2022-10-15T00:11:57.447Z,44.50
2022-10-15T00:12:28.873Z,44.21
2022-10-15T00:13:00.297Z,44.50
2022-10-15T00:13:31.771Z,44.25
2022-10-15T00:14:03.115Z,44.30
2022-10-15T00:14:34.508Z,44.51
2022-10-15T00:15:06.072Z,44.65
2022-10-15T00:15:37.430Z,44.51
2022-10-15T00:16:08.828Z,44.36
2022-10-15T00:16:40.235Z,44.27
2022-10-15T00:17:11.611Z,44.61
2022-10-15T00:17:43.043Z,44.36
2022-10-15T00:18:14.419Z,44.29
2022-10-15T00:18:45.787Z,44.25
2022-10-15T00:19:17.209Z,44.55
2022-10-15T00:19:48.599Z,44.45
2022-10-15T00:20:20.095Z,44.29
2022-10-15T00:20:51.445Z,44.55
2022-10-15T00:21:22.850Z,44.32
2022-10-15T00:21:54.329Z,44.09
2022-10-15T00:22:26.003Z,44.18
2022-10-15T00:22:57.636Z,44.34
2022-10-15T00:23:29.033Z,44.18
2022-10-15T00:24:00.453Z,44.28
2022-10-15T00:24:31.841Z,44.18
2022-10-15T00:25:03.232Z,44.35
2022-10-15T00:25:34.752Z,44.22
2022-10-15T00:26:06.178Z,44.45
2022-10-15T00:26:37.546Z,44.57
2022-10-15T00:27:08.920Z,44.54
2022-10-15T00:27:40.329Z,44.30
2022-10-15T00:28:11.684Z,44.25
2022-10-15T00:28:43.112Z,44.22
2022-10-15T00:29:14.575Z,44.05
2022-10-15T00:29:45.981Z,44.36
2022-10-15T00:30:17.352Z,44.29
2022-10-15T00:30:48.833Z,44.28
2022-10-15T00:31:20.213Z,44.51
2022-10-15T00:31:51.638Z,44.26
2022-10-15T00:32:23.203Z,44.38
2022-10-15T00:32:54.873Z,44.25
2022-10-15T00:33:26.271Z,44.49
2022-10-15T00:33:57.645Z,44.42
2022-10-15T00:34:29.079Z,44.64
2022-10-15T00:35:00.433Z,44.55
2022-10-15T00:35:31.820Z,44.46
2022-10-15T00:36:03.256Z,44.50
2022-10-15T00:36:34.677Z,44.20
2022-10-15T00:37:06.067Z,44.36
2022-10-15T00:37:37.447Z,44.29
2022-10-15T00:38:08.848Z,44.43
2022-10-15T00:38:40.271Z,44.58
2022-10-15T00:39:11.658Z,44.53
2022-10-15T00:39:43.028Z,44.30
2022-10-15T00:40:14.433Z,44.21
2022-10-15T00:40:45.878Z,44.21
2022-10-15T00:41:17.256Z,44.22
2022-10-15T00:41:48.616Z,44.47
2022-10-15T00:42:20.162Z,44.20
2022-10-15T00:42:51.730Z,44.38
2022-10-15T00:43:23.210Z,44.39
2022-10-15T00:43:54.677Z,44.19
2022-10-15T00:44:26.076Z,44.52
2022-10-15T00:44:57.485Z,44.35
2022-10-15T00:45:28.920Z,44.36
2022-10-15T00:46:00.347Z,44.64
2022-10-15T00:46:31.760Z,44.35
2022-10-15T00:47:03.229Z,44.71
2022-10-15T00:47:34.682Z,44.33
2022-10-15T00:48:06.101Z,44.32
2022-10-15T00:48:37.464Z,44.50
2022-10-15T00:49:08.812Z,44.56
2022-10-15T00:49:40.223Z,44.30
2022-10-15T00:50:11.614Z,44.24
2022-10-15T00:50:42.993Z,44.45
2022-10-15T00:51:14.401Z,44.37
2022-10-15T00:51:45.798Z,44.38
2022-10-15T00:52:17.286Z,44.56
2022-10-15T00:52:48.752Z,44.33
2022-10-15T00:53:20.097Z,44.57
2022-10-15T00:53:51.455Z,44.33
2022-10-15T00:54:22.814Z,44.60
2022-10-15T00:54:54.248Z,44.70
2022-10-15T00:55:25.666Z,44.48
2022-10-15T00:55:57.122Z,44.52
2022-10-15T00:56:28.482Z,44.42
2022-10-15T00:56:59.958Z,44.38
2022-10-15T00:57:31.289Z,44.46
2022-10-15T00:58:02.941Z,44.47
2022-10-15T00:58:34.374Z,44.69
2022-10-15T00:59:05.794Z,44.54
2022-10-15T00:59:37.145Z,44.60
2022-10-15T01:00:08.503Z,44.32
2022-10-15T01:00:39.921Z,44.42
2022-10-15T01:01:11.366Z,44.33
2022-10-15T01:01:42.810Z,44.40
2022-10-15T01:02:14.215Z,44.47
2022-10-15T01:02:45.580Z,44.60
2022-10-15T01:03:16.977Z,44.51
2022-10-15T01:03:48.317Z,44.51
2022-10-15T01:04:19.686Z,44.61
2022-10-15T01:04:51.073Z,44.72
2022-10-15T01:05:22.460Z,44.32
2022-10-15T01:05:53.822Z,44.47
2022-10-15T01:06:25.245Z,44.41
2022-10-15T01:06:56.631Z,44.67
2022-10-15T01:07:28.049Z,44.43
2022-10-15T01:07:59.409Z,44.40
2022-10-15T01:08:30.851Z,44.29
2022-10-15T01:09:02.378Z,44.48
2022-10-15T01:09:33.795Z,44.49
2022-10-15T01:10:05.220Z,44.41
2022-10-15T01:10:36.584Z,44.35
2022-10-15T01:11:07.924Z,44.29
2022-10-15T01:11:39.352Z,44.21
2022-10-15T01:12:10.724Z,44.17
2022-10-15T01:12:42.116Z,44.13
2022-10-15T01:13:13.584Z,44.39
2022-10-15T01:13:45.008Z,44.18
2022-10-15T01:14:16.384Z,44.44
2022-10-15T01:14:47.762Z,44.42
2022-10-15T01:15:19.104Z,44.00
2022-10-15T01:15:50.444Z,44.15
2022-10-15T01:16:21.835Z,44.40
2022-10-15T01:16:53.187Z,44.40
2022-10-15T01:17:25.006Z,44.41
2022-10-15T01:17:56.577Z,44.30
2022-10-15T01:18:27.948Z,44.40
2022-10-15T01:18:59.431Z,44.34
2022-10-15T01:19:30.797Z,44.55
2022-10-15T01:20:02.178Z,44.57
2022-10-15T01:20:33.651Z,44.22
2022-10-15T01:21:05.074Z,44.37
2022-10-15T01:21:36.411Z,44.32
2022-10-15T01:22:07.750Z,44.29
2022-10-15T01:22:39.142Z,44.45
2022-10-15T01:23:10.570Z,44.26
2022-10-15T01:23:42.002Z,44.45
2022-10-15T01:24:13.375Z,44.56
2022-10-15T01:24:44.779Z,44.38
2022-10-15T01:25:52.340Z,44.61
2022-10-15T01:26:23.679Z,44.59
2022-10-15T01:26:55.054Z,44.31
2022-10-15T01:27:26.851Z,44.62
2022-10-15T01:27:58.440Z,44.36
2022-10-15T01:28:29.814Z,44.41
2022-10-15T01:29:01.221Z,44.40
2022-10-15T01:29:32.648Z,44.42
2022-10-15T01:30:04.040Z,44.52
2022-10-15T01:30:35.487Z,44.33
2022-10-15T01:31:06.824Z,44.32
2022-10-15T01:31:38.164Z,44.45
2022-10-15T01:32:09.564Z,44.19
2022-10-15T01:32:40.971Z,44.45
2022-10-15T01:33:12.391Z,44.30
2022-10-15T01:33:43.763Z,44.27
2022-10-15T01:34:50.124Z,44.22
2022-10-15T01:35:21.494Z,44.28
2022-10-15T01:35:52.888Z,44.59
2022-10-15T01:36:24.232Z,44.41
2022-10-15T01:36:55.631Z,44.30
2022-10-15T01:37:27.074Z,44.57
2022-10-15T01:37:58.469Z,44.40
2022-10-15T01:38:29.910Z,44.31
2022-10-15T01:39:01.257Z,44.33
2022-10-15T01:39:32.584Z,44.59
2022-10-15T01:40:03.987Z,44.26
2022-10-15T01:40:35.370Z,44.28
2022-10-15T01:41:07.235Z,44.50
2022-10-15T01:41:38.590Z,44.35
2022-10-15T01:42:09.948Z,44.46
2022-10-15T01:42:41.309Z,44.44
2022-10-15T01:43:12.841Z,44.28
2022-10-15T01:43:44.272Z,44.32
2022-10-15T01:44:15.640Z,44.54
2022-10-15T01:44:47.022Z,44.45
2022-10-15T01:45:18.385Z,44.34
2022-10-15T01:45:49.758Z,44.45
2022-10-15T01:46:21.151Z,44.53
2022-10-15T01:46:52.523Z,44.15
2022-10-15T01:47:24.159Z,44.21
2022-10-15T01:47:55.701Z,44.24
2022-10-15T01:48:27.096Z,44.46
2022-10-15T01:48:58.500Z,44.29
2022-10-15T01:49:29.884Z,44.20
2022-10-15T01:50:01.240Z,44.51
2022-10-15T01:50:32.647Z,44.23
2022-10-15T01:51:03.991Z,44.20
2022-10-15T01:51:35.397Z,44.49
2022-10-15T01:52:06.786Z,44.23
2022-10-15T01:52:38.109Z,44.41
2022-10-15T01:53:09.483Z,44.31
2022-10-15T01:53:40.926Z,44.49
2022-10-15T01:54:12.325Z,44.33
2022-10-15T01:54:43.664Z,44.36
2022-10-15T01:55:15.055Z,44.40
2022-10-15T01:55:46.431Z,44.63
2022-10-15T01:56:17.853Z,44.81
2022-10-15T01:56:49.246Z,44.31
2022-10-15T01:57:20.956Z,44.23
2022-10-15T01:57:52.649Z,44.16
2022-10-15T01:58:24.074Z,44.49
2022-10-15T01:58:55.460Z,44.51
2022-10-15T01:59:26.877Z,44.25
2022-10-15T01:59:58.325Z,44.19
2022-10-15T02:00:29.769Z,44.59
2022-10-15T02:01:01.205Z,44.18
2022-10-15T02:01:32.728Z,44.40
2022-10-15T02:02:04.232Z,44.37
2022-10-15T02:02:35.645Z,44.35
2022-10-15T02:03:07.025Z,44.18
2022-10-15T02:03:38.367Z,44.11
2022-10-15T02:04:09.730Z,44.06
2022-10-15T02:04:41.099Z,44.15
2022-10-15T02:05:12.465Z,44.11
2022-10-15T02:05:43.874Z,44.09
2022-10-15T02:06:15.291Z,44.08
2022-10-15T02:06:46.641Z,44.35
2022-10-15T02:07:18.152Z,44.12
2022-10-15T02:07:49.707Z,44.32
2022-10-15T02:08:21.136Z,44.59
2022-10-15T02:08:52.583Z,44.17
2022-10-15T02:09:24.016Z,44.19
2022-10-15T02:09:55.490Z,44.21
2022-10-15T02:10:26.842Z,44.20
2022-10-15T02:10:58.195Z,44.63
2022-10-15T02:11:29.814Z,44.35
2022-10-15T02:12:01.315Z,44.44
2022-10-15T02:12:32.723Z,44.47
2022-10-15T02:13:04.049Z,44.50
2022-10-15T02:13:35.371Z,44.25
2022-10-15T02:14:06.711Z,44.20
2022-10-15T02:14:38.155Z,44.42
2022-10-15T02:15:09.579Z,44.30
2022-10-15T02:15:41.020Z,44.56
2022-10-15T02:16:12.366Z,44.57
2022-10-15T02:16:43.711Z,44.32
2022-10-15T02:17:15.116Z,44.37
2022-10-15T02:17:46.466Z,44.65
2022-10-15T02:18:17.845Z,44.35
2022-10-15T02:18:49.235Z,44.51
2022-10-15T02:19:20.581Z,44.28
2022-10-15T02:19:52.115Z,44.25
2022-10-15T02:20:23.527Z,44.31
2022-10-15T02:20:54.899Z,44.50
2022-10-15T02:21:26.290Z,44.25
2022-10-15T02:21:57.642Z,44.51
2022-10-15T02:22:29.012Z,44.37
2022-10-15T02:23:00.388Z,44.47
2022-10-15T02:23:31.798Z,44.47
2022-10-15T02:24:03.169Z,44.53
2022-10-15T02:24:34.572Z,44.47
2022-10-15T02:25:06.045Z,44.53
2022-10-15T02:25:37.432Z,44.38
2022-10-15T02:26:08.885Z,44.24
2022-10-15T02:26:40.180Z,44.52
2022-10-15T02:27:11.605Z,44.51
2022-10-15T02:27:42.997Z,44.45
2022-10-15T02:28:14.896Z,44.51
2022-10-15T02:28:46.361Z,44.19
2022-10-15T02:29:17.915Z,44.25
2022-10-15T02:29:49.332Z,44.35
2022-10-15T02:30:20.771Z,44.40
2022-10-15T02:30:52.207Z,44.24
2022-10-15T02:31:23.645Z,44.32
2022-10-15T02:31:55.028Z,44.27
2022-10-15T02:32:26.653Z,44.11
2022-10-15T02:32:58.324Z,44.15
2022-10-15T02:33:29.655Z,44.36
2022-10-15T02:34:01.022Z,44.48
2022-10-15T02:34:32.390Z,44.48
2022-10-15T02:35:03.969Z,44.28
2022-10-15T02:35:35.375Z,44.20
2022-10-15T02:36:06.800Z,44.37
2022-10-15T02:36:38.187Z,44.44
2022-10-15T02:37:09.643Z,44.35
2022-10-15T02:37:41.100Z,44.29
2022-10-15T02:38:43.768Z,44.36
2022-10-15T02:39:15.214Z,44.08
2022-10-15T02:39:46.615Z,44.30
2022-10-15T02:40:18.023Z,44.16
2022-10-15T02:40:49.431Z,44.32
2022-10-15T02:41:20.883Z,44.04
2022-10-15T02:41:52.301Z,44.05
2022-10-15T02:42:23.947Z,44.39
2022-10-15T02:42:55.547Z,44.13
2022-10-15T02:43:27.015Z,44.10
2022-10-15T02:43:58.349Z,44.03
2022-10-15T02:44:29.723Z,44.04
2022-10-15T02:45:01.065Z,44.31
2022-10-15T02:45:32.543Z,44.19
2022-10-15T02:46:03.872Z,44.35
2022-10-15T02:46:35.322Z,44.04
2022-10-15T02:47:06.738Z,43.99
2022-10-15T02:47:38.071Z,44.11
2022-10-15T02:48:09.457Z,44.04
2022-10-15T02:48:40.944Z,44.36
2022-10-15T02:49:12.298Z,44.10
2022-10-15T02:49:43.682Z,44.38
2022-10-15T02:50:15.063Z,44.26
2022-10-15T02:50:46.458Z,44.44
2022-10-15T02:51:17.940Z,44.51
2022-10-15T02:51:49.407Z,44.44
2022-10-15T02:52:21.094Z,44.62
2022-10-15T02:52:52.752Z,44.45
2022-10-15T02:53:24.109Z,44.25
2022-10-15T02:53:55.518Z,44.18
2022-10-15T02:54:26.888Z,44.18
2022-10-15T02:54:58.259Z,44.28
2022-10-15T02:55:29.659Z,44.07
2022-10-15T02:56:01.164Z,44.11
2022-10-15T02:56:32.582Z,44.30
2022-10-15T02:57:03.958Z,44.08
2022-10-15T02:57:35.390Z,44.37
2022-10-15T02:58:06.813Z,44.22
2022-10-15T02:58:38.186Z,44.38
2022-10-15T02:59:09.616Z,44.43
2022-10-15T02:59:41.004Z,44.01
2022-10-15T03:00:12.451Z,44.23
2022-10-15T03:00:43.840Z,44.33
2022-10-15T03:01:15.443Z,44.30
2022-10-15T03:01:46.874Z,44.38
2022-10-15T03:02:19.345Z,44.36
2022-10-15T03:02:50.756Z,44.32
2022-10-15T03:03:22.481Z,44.11
2022-10-15T03:03:54.170Z,44.22
2022-10-15T03:04:25.624Z,44.11
2022-10-15T03:04:57.029Z,44.17
2022-10-15T03:05:59.759Z,44.13
2022-10-15T03:06:31.226Z,44.15
2022-10-15T03:07:02.608Z,44.31
2022-10-15T03:07:34.023Z,44.09
2022-10-15T03:08:05.456Z,44.04
2022-10-15T03:08:36.886Z,44.09
2022-10-15T03:09:08.285Z,44.41
2022-10-15T03:09:39.726Z,44.23
2022-10-15T03:10:11.133Z,44.35
2022-10-15T03:10:42.589Z,44.06
2022-10-15T03:11:14.072Z,44.36
2022-10-15T03:11:45.595Z,44.23
2022-10-15T03:12:17.048Z,44.13
2022-10-15T03:12:48.456Z,44.12
2022-10-15T03:13:19.891Z,44.11
2022-10-15T03:13:51.320Z,44.27
2022-10-15T03:14:22.725Z,44.12
2022-10-15T03:14:54.157Z,43.97
2022-10-15T03:15:25.558Z,44.19
2022-10-15T03:15:57.016Z,44.24
2022-10-15T03:16:28.461Z,44.06
2022-10-15T03:16:59.872Z,43.92
2022-10-15T03:17:31.308Z,44.07
2022-10-15T03:18:02.758Z,44.07
2022-10-15T03:18:36.823Z,44.15
2022-10-15T03:19:11.344Z,44.08
2022-10-15T03:19:42.742Z,43.97
2022-10-15T03:20:16.972Z,43.89
2022-10-15T03:20:48.389Z,44.00
2022-10-15T03:21:19.909Z,43.97
2022-10-15T03:21:51.266Z,44.06
2022-10-15T03:22:22.681Z,44.12
2022-10-15T03:22:54.089Z,44.25
2022-10-15T03:23:25.649Z,43.99
2022-10-15T03:23:57.046Z,44.14
2022-10-15T03:24:28.537Z,43.98
2022-10-15T03:24:59.981Z,44.02
2022-10-15T03:25:31.425Z,43.86
2022-10-15T03:26:02.986Z,44.12
2022-10-15T03:26:34.411Z,44.13
2022-10-15T03:27:05.894Z,44.16
2022-10-15T03:27:37.323Z,44.04
2022-10-15T03:28:08.794Z,44.13
2022-10-15T03:28:40.317Z,44.07
2022-10-15T03:29:11.763Z,44.03
2022-10-15T03:29:43.246Z,44.23
2022-10-15T03:30:14.703Z,43.95
2022-10-15T03:30:46.136Z,43.99
2022-10-15T03:31:17.656Z,43.90
2022-10-15T03:31:49.060Z,43.81
2022-10-15T03:32:20.467Z,44.03
2022-10-15T03:32:51.929Z,44.22
2022-10-15T03:33:25.149Z,44.24
2022-10-15T03:33:56.871Z,43.79
2022-10-15T03:34:28.331Z,44.09
2022-10-15T03:34:59.728Z,44.09
2022-10-15T03:35:31.141Z,44.02
2022-10-15T03:36:02.629Z,43.88
2022-10-15T03:36:34.074Z,44.06
2022-10-15T03:37:05.585Z,43.79
2022-10-15T03:37:37.088Z,43.87
2022-10-15T03:38:08.494Z,44.05
2022-10-15T03:38:39.899Z,43.81
2022-10-15T03:39:11.387Z,43.74
2022-10-15T03:39:42.838Z,43.96
2022-10-15T03:40:14.767Z,43.67
2022-10-15T03:40:46.277Z,43.89
2022-10-15T03:41:17.665Z,43.98
2022-10-15T03:41:49.208Z,43.68
2022-10-15T03:42:20.764Z,43.73
2022-10-15T03:42:52.361Z,43.92
2022-10-15T03:43:23.805Z,43.69
2022-10-15T03:43:55.236Z,43.67
2022-10-15T03:44:26.685Z,43.84
2022-10-15T03:44:58.083Z,43.82
2022-10-15T03:45:29.490Z,43.84
2022-10-15T03:46:00.970Z,43.70
2022-10-15T03:46:32.401Z,43.74
2022-10-15T03:47:03.922Z,43.65
2022-10-15T03:47:35.307Z,43.75
2022-10-15T03:48:06.721Z,43.89
2022-10-15T03:48:38.218Z,43.65
2022-10-15T03:49:09.615Z,43.96
2022-10-15T03:49:41.067Z,43.97
2022-10-15T03:50:12.472Z,43.89
2022-10-15T03:51:23.609Z,43.83
2022-10-15T03:51:57.048Z,43.74
2022-10-15T03:52:28.531Z,43.73
2022-10-15T03:52:59.960Z,43.98
2022-10-15T03:53:31.408Z,43.94
2022-10-15T03:54:02.897Z,43.73
2022-10-15T03:54:34.317Z,43.68
2022-10-15T03:55:05.751Z,43.74
2022-10-15T03:55:37.196Z,43.68
2022-10-15T03:56:08.645Z,44.07
2022-10-15T03:56:40.232Z,43.99
2022-10-15T03:57:11.610Z,43.76
2022-10-15T03:57:43.056Z,43.89
2022-10-15T03:58:14.515Z,44.09
2022-10-15T03:58:45.963Z,43.73
2022-10-15T03:59:17.405Z,43.81
2022-10-15T03:59:48.798Z,43.71
2022-10-15T04:00:20.266Z,43.59
2022-10-15T04:00:51.760Z,43.84
2022-10-15T04:01:23.297Z,43.56
2022-10-15T04:01:54.798Z,43.82
2022-10-15T04:02:26.596Z,43.84
2022-10-15T04:02:58.314Z,43.58
2022-10-15T04:03:29.756Z,43.70
2022-10-15T04:04:01.201Z,43.84
2022-10-15T04:04:32.617Z,43.56
2022-10-15T04:05:04.058Z,43.69
2022-10-15T04:05:35.474Z,43.82
2022-10-15T04:06:07.032Z,43.63
2022-10-15T04:06:38.454Z,43.88
2022-10-15T04:07:09.919Z,43.51
2022-10-15T04:07:41.319Z,43.47
2022-10-15T04:08:12.791Z,43.49
2022-10-15T04:08:44.319Z,43.63
2022-10-15T04:09:15.757Z,43.47
2022-10-15T04:09:47.235Z,43.47
2022-10-15T04:10:18.649Z,43.60
2022-10-15T04:10:50.004Z,43.36
2022-10-15T04:11:21.428Z,43.62
2022-10-15T04:11:52.827Z,43.33
2022-10-15T04:12:24.459Z,43.47
2022-10-15T04:12:56.052Z,43.44
2022-10-15T04:13:27.538Z,43.60
2022-10-15T04:13:58.945Z,43.49
2022-10-15T04:14:30.356Z,43.47
2022-10-15T04:15:01.771Z,43.66
2022-10-15T04:15:33.156Z,43.59
2022-10-15T04:16:04.591Z,43.37
2022-10-15T04:16:36.059Z,43.60
2022-10-15T04:17:07.539Z,43.68
2022-10-15T04:17:38.923Z,43.78
2022-10-15T04:18:10.350Z,43.53
2022-10-15T04:18:41.822Z,43.84
2022-10-15T04:19:13.193Z,43.66
2022-10-15T04:19:44.628Z,43.47
2022-10-15T04:20:16.018Z,43.51
2022-10-15T04:20:47.489Z,43.48
2022-10-15T04:21:18.897Z,43.50
2022-10-15T04:21:50.299Z,43.52
2022-10-15T04:22:22.022Z,43.72
2022-10-15T04:22:53.625Z,43.75
2022-10-15T04:23:25.038Z,43.77
2022-10-15T04:23:56.472Z,43.77
2022-10-15T04:24:27.924Z,43.67
2022-10-15T04:24:59.355Z,43.53
2022-10-15T04:25:30.968Z,43.87
2022-10-15T04:26:02.371Z,43.80
2022-10-15T04:26:33.807Z,43.83
2022-10-15T04:27:05.259Z,43.70
2022-10-15T04:27:36.788Z,43.55
2022-10-15T04:28:08.365Z,43.67
2022-10-15T04:28:39.890Z,43.83
2022-10-15T04:29:11.346Z,43.52
2022-10-15T04:29:42.842Z,43.47
2022-10-15T04:30:14.319Z,43.55
2022-10-15T04:30:45.704Z,43.78
2022-10-15T04:31:17.151Z,43.49
2022-10-15T04:31:48.590Z,43.82
2022-10-15T04:32:20.030Z,43.46
2022-10-15T04:32:51.578Z,43.74
2022-10-15T04:33:22.996Z,43.80
2022-10-15T04:33:54.465Z,43.51
2022-10-15T04:34:25.884Z,43.72
2022-10-15T04:34:57.283Z,43.60
2022-10-15T04:35:28.681Z,43.60
2022-10-15T04:36:00.054Z,43.49
2022-10-15T04:36:31.466Z,43.60
2022-10-15T04:37:02.889Z,43.34
2022-10-15T04:37:34.389Z,43.53
2022-10-15T04:38:05.841Z,43.32
2022-10-15T04:38:37.240Z,43.63
2022-10-15T04:39:10.921Z,43.35
2022-10-15T04:39:45.170Z,43.36
2022-10-15T04:40:16.563Z,43.52
2022-10-15T04:40:48.011Z,43.58
2022-10-15T04:41:19.430Z,43.43
2022-10-15T04:41:53.585Z,43.36
2022-10-15T04:42:25.025Z,43.36
2022-10-15T04:42:56.491Z,43.48
2022-10-15T04:43:27.961Z,43.42
2022-10-15T04:43:59.367Z,43.35
2022-10-15T04:44:30.751Z,43.31
2022-10-15T04:45:02.450Z,43.47
2022-10-15T04:45:33.965Z,43.46
2022-10-15T04:46:05.353Z,43.25
2022-10-15T04:46:36.777Z,43.56
2022-10-15T04:47:08.219Z,43.40
2022-10-15T04:47:39.709Z,43.36
2022-10-15T04:48:11.208Z,43.58
2022-10-15T04:48:43.429Z,43.31
2022-10-15T04:49:15.063Z,43.54
2022-10-15T04:49:46.574Z,43.32
2022-10-15T04:50:17.961Z,43.50
2022-10-15T04:50:49.410Z,43.48
2022-10-15T04:51:20.858Z,43.41
2022-10-15T04:51:52.297Z,43.13
2022-10-15T04:52:23.733Z,43.22
2022-10-15T04:52:55.204Z,43.47
2022-10-15T04:53:26.637Z,43.15
2022-10-15T04:53:58.035Z,43.21
2022-10-15T04:54:29.453Z,43.15
2022-10-15T04:55:00.863Z,43.48
2022-10-15T04:55:32.260Z,43.34
2022-10-15T04:56:03.747Z,43.24
2022-10-15T04:56:35.111Z,43.50
2022-10-15T04:57:06.605Z,43.62
2022-10-15T04:57:38.095Z,43.15
2022-10-15T04:58:09.505Z,43.35
2022-10-15T04:58:41.020Z,43.24
2022-10-15T04:59:12.476Z,43.22
2022-10-15T04:59:43.946Z,43.26
2022-10-15T05:00:15.377Z,43.11
2022-10-15T05:00:46.811Z,43.35
2022-10-15T05:01:18.252Z,43.07
2022-10-15T05:01:49.658Z,43.49
2022-10-15T05:02:21.134Z,43.07
2022-10-15T05:02:52.556Z,43.31
2022-10-15T05:03:24.013Z,43.25
2022-10-15T05:03:55.462Z,43.39
2022-10-15T05:04:26.900Z,43.14
2022-10-15T05:04:58.317Z,43.17
2022-10-15T05:05:29.716Z,43.13
2022-10-15T05:06:01.203Z,43.12
2022-10-15T05:06:32.591Z,43.20
2022-10-15T05:07:04.038Z,43.35
2022-10-15T05:07:35.540Z,43.28
2022-10-15T05:08:07.193Z,43.57
2022-10-15T05:08:38.618Z,43.32
2022-10-15T05:09:10.100Z,43.24
2022-10-15T05:09:46.011Z,43.39
2022-10-15T05:10:17.832Z,43.14
2022-10-15T05:10:49.215Z,43.39
2022-10-15T05:11:20.678Z,43.07
2022-10-15T05:11:52.098Z,43.22
2022-10-15T05:12:23.530Z,43.21
2022-10-15T05:12:56.761Z,43.18
2022-10-15T05:13:28.599Z,43.17
2022-10-15T05:13:59.977Z,42.93
2022-10-15T05:14:31.441Z,42.96
2022-10-15T05:15:02.925Z,43.29
2022-10-15T05:15:34.340Z,43.29
2022-10-15T05:16:05.788Z,43.03
2022-10-15T05:16:37.275Z,42.91
2022-10-15T05:17:08.751Z,43.00
2022-10-15T05:17:40.144Z,42.97
2022-10-15T05:18:11.564Z,43.00
2022-10-15T05:18:42.955Z,43.11
2022-10-15T05:19:14.382Z,43.00
2022-10-15T05:19:45.838Z,43.01
2022-10-15T05:20:17.261Z,43.21
2022-10-15T05:20:48.673Z,42.81
2022-10-15T05:21:20.169Z,42.97
2022-10-15T05:21:51.572Z,43.00
2022-10-15T05:22:23.358Z,43.23
2022-10-15T05:22:54.900Z,43.15
2022-10-15T05:23:26.341Z,43.26
2022-10-15T05:23:57.730Z,43.16
2022-10-15T05:24:29.166Z,42.99
2022-10-15T05:25:00.669Z,42.96
2022-10-15T05:25:32.073Z,43.31
2022-10-15T05:26:03.557Z,43.21
2022-10-15T05:26:34.962Z,42.90
2022-10-15T05:27:06.392Z,42.97
2022-10-15T05:27:37.822Z,43.11
2022-10-15T05:28:09.249Z,42.85
2022-10-15T05:28:40.732Z,43.01
2022-10-15T05:29:12.222Z,42.95
2022-10-15T05:29:43.728Z,42.85
2022-10-15T05:30:15.158Z,42.79
2022-10-15T05:30:46.564Z,43.07
2022-10-15T05:31:19.238Z,43.06
2022-10-15T05:31:50.815Z,42.79
2022-10-15T05:32:55.225Z,42.69
2022-10-15T05:33:26.628Z,42.76
2022-10-15T05:33:58.063Z,42.81
2022-10-15T05:34:29.500Z,42.69
2022-10-15T05:35:00.970Z,42.89
2022-10-15T05:35:32.525Z,42.78
2022-10-15T05:36:04.061Z,42.63
2022-10-15T05:36:35.533Z,42.68
2022-10-15T05:37:07.001Z,42.92
2022-10-15T05:37:38.446Z,42.65
2022-10-15T05:38:09.871Z,42.63
2022-10-15T05:38:41.292Z,42.70
2022-10-15T05:39:12.698Z,43.00
2022-10-15T05:39:44.123Z,42.66
2022-10-15T05:40:18.335Z,42.65
2022-10-15T05:40:52.669Z,42.59
2022-10-15T05:41:24.142Z,42.91
2022-10-15T05:41:55.546Z,42.60
2022-10-15T05:42:26.953Z,42.74
2022-10-15T05:42:58.447Z,42.79
2022-10-15T05:43:29.831Z,42.89
2022-10-15T05:44:01.356Z,42.89
2022-10-15T05:44:32.763Z,42.56
2022-10-15T05:45:04.397Z,42.52
2022-10-15T05:45:35.850Z,42.58
2022-10-15T05:46:07.265Z,42.45
2022-10-15T05:46:38.712Z,42.70
2022-10-15T05:47:10.109Z,42.65
2022-10-15T05:47:41.513Z,42.65
2022-10-15T05:48:12.915Z,42.48
2022-10-15T05:48:44.384Z,42.45
2022-10-15T05:49:15.800Z,42.62
2022-10-15T05:49:47.210Z,42.79
2022-10-15T05:50:18.650Z,42.68
2022-10-15T05:50:50.087Z,42.55
2022-10-15T05:51:21.528Z,42.48
2022-10-15T05:51:52.953Z,42.66
2022-10-15T05:52:24.808Z,42.38
2022-10-15T05:52:56.394Z,42.38
2022-10-15T05:53:27.837Z,42.62
2022-10-15T05:53:59.243Z,42.63
2022-10-15T05:54:30.719Z,42.71
2022-10-15T05:55:02.164Z,42.42
2022-10-15T05:55:33.734Z,42.67
2022-10-15T05:56:05.203Z,42.78
2022-10-15T05:56:36.593Z,42.77
2022-10-15T05:57:08.072Z,42.76
2022-10-15T05:57:39.539Z,42.63
2022-10-15T05:58:11.002Z,42.66
2022-10-15T05:58:42.387Z,42.66
2022-10-15T05:59:13.789Z,42.97
2022-10-15T05:59:45.277Z,42.82
2022-10-15T06:00:16.678Z,42.92
2022-10-15T06:00:48.131Z,43.02
2022-10-15T06:01:19.601Z,42.82
2022-10-15T06:01:51.099Z,42.75
2022-10-15T06:02:22.923Z,42.87
2022-10-15T06:02:54.745Z,42.65
2022-10-15T06:03:26.175Z,42.94
2022-10-15T06:03:57.576Z,42.65
2022-10-15T06:04:31.802Z,42.98
2022-10-15T06:05:06.165Z,42.91
2022-10-15T06:05:37.580Z,42.94
2022-10-15T06:06:09.003Z,42.64
2022-10-15T06:06:40.520Z,42.63
2022-10-15T06:07:11.905Z,42.54
2022-10-15T06:07:43.295Z,42.60
2022-10-15T06:08:14.743Z,42.56
2022-10-15T06:08:46.130Z,42.49
2022-10-15T06:09:17.670Z,42.54
2022-10-15T06:09:49.073Z,42.77
2022-10-15T06:10:23.329Z,42.43
2022-10-15T06:10:54.719Z,42.64
2022-10-15T06:11:26.124Z,42.65
2022-10-15T06:11:57.608Z,42.65
2022-10-15T06:12:29.037Z,42.45
2022-10-15T06:13:00.464Z,42.63
2022-10-15T06:13:31.876Z,42.49
2022-10-15T06:14:03.312Z,42.47
2022-10-15T06:14:34.763Z,42.42
2022-10-15T06:15:06.177Z,42.47
2022-10-15T06:15:37.575Z,42.39
2022-10-15T06:16:09.031Z,42.60
2022-10-15T06:16:40.462Z,42.44
2022-10-15T06:17:12.147Z,42.54
2022-10-15T06:17:43.597Z,42.35
2022-10-15T06:18:15.234Z,42.48
2022-10-15T06:18:46.622Z,42.37
2022-10-15T06:19:18.094Z,42.43
2022-10-15T06:19:49.534Z,42.36
2022-10-15T06:20:20.945Z,42.69
2022-10-15T06:20:52.327Z,42.30
2022-10-15T06:21:23.726Z,42.68
2022-10-15T06:21:55.251Z,42.45
2022-10-15T06:22:26.739Z,42.48
2022-10-15T06:22:58.216Z,42.30
2022-10-15T06:23:29.682Z,42.40
2022-10-15T06:24:01.700Z,42.37
2022-10-15T06:24:34.579Z,42.65
2022-10-15T06:25:05.935Z,42.56
2022-10-15T06:25:37.319Z,42.33
2022-10-15T06:26:08.717Z,42.61
2022-10-15T06:26:40.195Z,42.72
2022-10-15T06:27:11.667Z,42.36
2022-10-15T06:27:43.362Z,42.28
2022-10-15T06:28:14.791Z,42.34
2022-10-15T06:28:46.256Z,42.36
2022-10-15T06:29:17.743Z,42.38
2022-10-15T06:29:49.148Z,42.33
2022-10-15T06:30:20.606Z,42.37
2022-10-15T06:30:52.016Z,42.35
2022-10-15T06:31:23.424Z,42.50
2022-10-15T06:31:54.903Z,42.38
2022-10-15T06:32:26.387Z,42.66
2022-10-15T06:32:57.933Z,42.47
2022-10-15T06:33:29.337Z,42.43
2022-10-15T06:34:00.716Z,42.47
2022-10-15T06:34:32.119Z,42.46
2022-10-15T06:35:03.557Z,42.71
2022-10-15T06:35:34.966Z,42.45
2022-10-15T06:36:06.404Z,42.68
2022-10-15T06:36:37.813Z,42.65
2022-10-15T06:37:09.368Z,42.66
2022-10-15T06:37:40.835Z,42.79
2022-10-15T06:38:12.242Z,42.42
2022-10-15T06:38:43.727Z,42.37
2022-10-15T06:39:15.178Z,42.44
2022-10-15T06:39:46.563Z,42.45
2022-10-15T06:40:18.105Z,42.88
2022-10-15T06:40:49.507Z,42.39
2022-10-15T06:41:20.926Z,42.37
2022-10-15T06:41:52.389Z,42.62
2022-10-15T06:42:23.860Z,42.56
2022-10-15T06:42:55.431Z,42.41
2022-10-15T06:43:28.830Z,42.68
2022-10-15T06:44:04.109Z,42.63
2022-10-15T06:44:35.714Z,42.73
2022-10-15T06:45:07.140Z,42.60
2022-10-15T06:45:38.553Z,42.30
2022-10-15T06:46:09.997Z,42.55
2022-10-15T06:46:41.469Z,42.26
2022-10-15T06:47:12.860Z,42.53
2022-10-15T06:47:44.307Z,42.20
2022-10-15T06:48:15.805Z,42.56
2022-10-15T06:48:47.208Z,42.09
2022-10-15T06:49:18.682Z,42.20